createdAt,value
2023-03-19T00:01:59.325Z,8.70
2023-03-19T00:06:25.538Z,8.70
2023-03-19T00:10:47.511Z,8.70
2023-03-19T00:15:14.298Z,8.70
2023-03-19T00:19:36.414Z,8.70
2023-03-19T00:24:02.324Z,8.70
2023-03-19T00:28:24.166Z,8.70
2023-03-19T00:32:46.175Z,8.70
2023-03-19T00:37:08.354Z,8.70
2023-03-19T00:41:30.347Z,8.60
2023-03-19T00:45:52.055Z,8.60
2023-03-19T00:50:14.191Z,8.50
2023-03-19T00:54:36.213Z,8.40
2023-03-19T00:58:58.158Z,8.40
2023-03-19T01:03:20.361Z,8.30
2023-03-19T01:07:42.203Z,8.30
2023-03-19T01:12:04.946Z,8.30
2023-03-19T01:16:27.770Z,8.30
2023-03-19T01:20:49.696Z,8.30
2023-03-19T01:25:13.890Z,8.20
2023-03-19T01:29:42.103Z,8.10
2023-03-19T01:34:09.636Z,8.00
2023-03-19T01:38:38.034Z,7.90
2023-03-19T01:43:24.120Z,7.90
2023-03-19T01:48:41.963Z,7.80
2023-03-19T01:53:12.624Z,7.80
2023-03-19T01:57:42.671Z,7.80
2023-03-19T02:02:34.546Z,7.90
2023-03-19T02:07:08.402Z,8.10
2023-03-19T02:11:31.044Z,8.10
2023-03-19T02:15:52.755Z,8.20
2023-03-19T02:20:35.178Z,8.20
2023-03-19T02:25:05.442Z,8.20
2023-03-19T02:29:28.364Z,8.20
2023-03-19T02:34:23.921Z,8.20
2023-03-19T02:38:47.943Z,8.20
2023-03-19T02:43:10.402Z,8.20
2023-03-19T02:47:32.224Z,8.20
2023-03-19T02:51:54.136Z,8.20
2023-03-19T02:56:16.173Z,8.30
2023-03-19T03:00:38.580Z,8.20
2023-03-19T03:05:00.292Z,8.20
2023-03-19T03:09:22.694Z,8.20
2023-03-19T03:13:44.690Z,8.20
2023-03-19T03:18:06.814Z,8.10
2023-03-19T03:22:29.212Z,8.00
2023-03-19T03:26:51.126Z,8.00
2023-03-19T03:31:14.364Z,7.90
2023-03-19T03:35:36.445Z,7.80
2023-03-19T03:39:58.272Z,7.70
2023-03-19T03:44:20.402Z,7.60
2023-03-19T03:48:42.166Z,7.40
2023-03-19T03:53:04.061Z,7.30
2023-03-19T03:57:26.734Z,7.20
2023-03-19T04:01:50.484Z,7.10
2023-03-19T04:06:19.533Z,6.90
2023-03-19T04:10:48.548Z,6.80
2023-03-19T04:15:11.790Z,6.70
2023-03-19T04:19:36.623Z,6.60
2023-03-19T04:23:58.461Z,6.40
2023-03-19T04:28:21.169Z,6.30
2023-03-19T04:32:44.510Z,6.10
2023-03-19T04:37:06.358Z,6.00
2023-03-19T04:41:32.610Z,5.90
2023-03-19T04:46:04.697Z,5.80
2023-03-19T04:50:26.822Z,5.70
2023-03-19T04:54:49.039Z,5.60
2023-03-19T04:59:11.535Z,5.50
2023-03-19T05:03:33.775Z,5.50
2023-03-19T05:07:57.470Z,5.40
2023-03-19T05:12:20.490Z,5.40
2023-03-19T05:16:45.726Z,5.40
2023-03-19T05:21:12.438Z,5.40
2023-03-19T05:25:37.731Z,5.30
2023-03-19T05:30:02.726Z,5.30
2023-03-19T05:34:43.720Z,5.30
2023-03-19T05:39:06.212Z,5.40
2023-03-19T05:43:31.649Z,5.60
2023-03-19T05:47:55.743Z,5.80
2023-03-19T05:52:17.835Z,6.00
2023-03-19T05:56:40.840Z,6.20
2023-03-19T06:01:28.436Z,6.50
2023-03-19T06:05:52.343Z,6.70
2023-03-19T06:10:27.844Z,6.90
2023-03-19T06:14:52.636Z,7.20
2023-03-19T06:19:34.215Z,7.50
2023-03-19T06:23:56.907Z,7.90
2023-03-19T06:28:25.480Z,8.30
2023-03-19T06:32:47.169Z,8.70
2023-03-19T06:37:09.707Z,8.90
2023-03-19T06:41:31.980Z,9.30
2023-03-19T06:46:08.267Z,10.10
2023-03-19T06:50:31.458Z,11.10
2023-03-19T06:54:53.348Z,12.40
2023-03-19T06:59:16.038Z,13.60
2023-03-19T07:03:37.724Z,14.40
2023-03-19T07:08:00.010Z,14.70
2023-03-19T07:12:21.813Z,14.40
2023-03-19T07:16:43.608Z,14.20
2023-03-19T07:21:06.247Z,14.40
2023-03-19T07:25:28.580Z,14.30
2023-03-19T07:29:50.449Z,14.30
2023-03-19T07:34:12.617Z,14.50
2023-03-19T07:38:34.163Z,14.80
2023-03-19T07:42:56.348Z,15.50
2023-03-19T07:47:28.462Z,16.00
2023-03-19T07:51:51.329Z,16.30
2023-03-19T07:56:13.445Z,17.00
2023-03-19T08:00:35.614Z,17.90
2023-03-19T08:04:58.589Z,19.00
2023-03-19T08:09:20.231Z,19.60
2023-03-19T08:13:42.918Z,20.50
2023-03-19T08:18:05.510Z,20.70
2023-03-19T08:22:27.526Z,20.70
2023-03-19T08:26:50.154Z,20.90
2023-03-19T08:31:14.184Z,21.40
2023-03-19T08:35:36.038Z,21.60
2023-03-19T08:39:58.091Z,21.70
2023-03-19T08:44:19.990Z,21.30
2023-03-19T08:48:42.105Z,21.40
2023-03-19T08:53:03.718Z,22.00
2023-03-19T08:57:26.051Z,23.80
2023-03-19T09:01:52.958Z,24.80
2023-03-19T09:06:14.798Z,26.30
2023-03-19T09:10:37.234Z,27.10
2023-03-19T09:14:59.290Z,27.80
2023-03-19T09:19:21.456Z,27.40
2023-03-19T09:23:43.144Z,26.80
2023-03-19T09:28:05.696Z,28.10
2023-03-19T09:32:27.700Z,28.40
2023-03-19T09:36:49.372Z,27.20
2023-03-19T09:41:31.526Z,25.80
2023-03-19T09:45:53.296Z,27.50
2023-03-19T09:50:21.246Z,27.90
2023-03-19T09:54:52.724Z,27.30
2023-03-19T09:59:14.717Z,26.40
2023-03-19T10:04:29.794Z,25.40
2023-03-19T10:08:54.236Z,26.10
2023-03-19T10:13:43.137Z,28.00
2023-03-19T10:18:27.551Z,29.50
2023-03-19T10:22:56.337Z,29.80
2023-03-19T10:27:22.452Z,28.50
2023-03-19T10:32:12.483Z,28.00
2023-03-19T10:36:39.154Z,28.30
2023-03-19T10:42:08.046Z,27.90
2023-03-19T10:46:39.577Z,26.80
2023-03-19T10:51:05.623Z,25.70
2023-03-19T10:55:31.457Z,24.80
2023-03-19T10:59:54.004Z,24.40
2023-03-19T11:04:22.917Z,24.10
2023-03-19T11:09:03.835Z,23.30
2023-03-19T11:13:26.969Z,23.20
2023-03-19T11:17:57.802Z,22.80
2023-03-19T11:22:33.005Z,22.30
2023-03-19T11:26:56.804Z,22.30
2023-03-19T11:31:37.503Z,22.30
2023-03-19T11:36:34.127Z,21.90
2023-03-19T11:41:12.001Z,21.70
2023-03-19T11:45:49.709Z,21.30
2023-03-19T11:51:04.564Z,20.80
2023-03-19T11:55:37.725Z,21.10
2023-03-19T12:00:19.587Z,22.50
2023-03-19T12:05:11.547Z,22.90
2023-03-19T12:10:01.504Z,22.50
2023-03-19T12:14:49.491Z,22.00
2023-03-19T12:20:00.195Z,21.80
2023-03-19T12:24:42.775Z,21.70
2023-03-19T12:29:35.061Z,22.00
2023-03-19T12:34:36.153Z,22.40
2023-03-19T12:39:26.205Z,22.30
2023-03-19T12:44:22.002Z,21.40
2023-03-19T12:49:08.162Z,20.30
2023-03-19T12:53:52.187Z,19.80
2023-03-19T12:58:51.134Z,19.00
2023-03-19T13:04:08.708Z,18.10
2023-03-19T13:08:40.448Z,17.80
2023-03-19T13:13:32.185Z,17.80
2023-03-19T13:18:06.225Z,17.80
2023-03-19T13:22:36.052Z,18.00
2023-03-19T13:27:01.335Z,18.30
2023-03-19T13:31:28.365Z,18.00
2023-03-19T13:35:51.517Z,17.80
2023-03-19T13:40:45.263Z,17.60
2023-03-19T13:45:37.478Z,17.60
2023-03-19T13:50:55.609Z,17.50
2023-03-19T13:55:26.709Z,17.20
2023-03-19T13:59:50.972Z,17.10
2023-03-19T14:04:33.402Z,17.20
2023-03-19T14:08:56.116Z,17.20
2023-03-19T14:13:31.933Z,17.10
2023-03-19T14:17:56.513Z,17.00
2023-03-19T14:22:34.142Z,16.50
2023-03-19T14:27:23.296Z,16.20
2023-03-19T14:31:53.604Z,16.00
2023-03-19T14:36:21.826Z,15.90
2023-03-19T14:40:50.921Z,15.70
2023-03-19T14:46:04.231Z,15.60
2023-03-19T14:50:59.239Z,15.40
2023-03-19T14:55:21.147Z,15.10
2023-03-19T14:59:43.213Z,14.70
2023-03-19T15:04:09.519Z,14.20
2023-03-19T15:08:36.495Z,13.80
2023-03-19T15:13:39.429Z,13.60
2023-03-19T15:18:07.686Z,13.50
2023-03-19T15:22:34.856Z,13.30
2023-03-19T15:26:56.971Z,13.20
2023-03-19T15:31:33.772Z,13.10
2023-03-19T15:36:24.543Z,13.10
2023-03-19T15:40:46.425Z,13.10
2023-03-19T15:45:12.154Z,13.00
2023-03-19T15:49:44.050Z,12.90
2023-03-19T15:54:06.540Z,12.70
2023-03-19T15:58:38.555Z,12.60
2023-03-19T16:03:00.731Z,12.40
2023-03-19T16:07:32.664Z,12.40
2023-03-19T16:11:56.104Z,12.40
2023-03-19T16:16:23.790Z,12.40
2023-03-19T16:21:11.176Z,12.40
2023-03-19T16:25:33.381Z,12.20
2023-03-19T16:30:00.098Z,12.10
2023-03-19T16:34:47.926Z,12.20
2023-03-19T16:39:30.998Z,12.30
2023-03-19T16:43:54.932Z,12.20
2023-03-19T16:48:16.598Z,12.10
2023-03-19T16:52:40.949Z,12.00
2023-03-19T16:57:02.925Z,11.90
2023-03-19T17:01:26.126Z,11.80
2023-03-19T17:05:48.771Z,11.60
2023-03-19T17:10:19.351Z,11.60
2023-03-19T17:14:42.132Z,11.40
2023-03-19T17:19:09.947Z,11.20
2023-03-19T17:23:32.492Z,11.00
2023-03-19T17:27:54.651Z,10.80
2023-03-19T17:32:19.117Z,10.60
2023-03-19T17:36:42.748Z,10.40
2023-03-19T17:41:19.842Z,10.30
2023-03-19T17:45:46.803Z,10.20
2023-03-19T17:50:20.303Z,10.10
2023-03-19T17:54:42.672Z,10.00
2023-03-19T17:59:04.675Z,9.90
2023-03-19T18:03:31.178Z,10.00
2023-03-19T18:07:56.675Z,10.00
2023-03-19T18:12:18.398Z,10.00
2023-03-19T18:16:41.074Z,10.10
2023-03-19T18:21:02.952Z,10.00
2023-03-19T18:25:27.094Z,9.90
2023-03-19T18:29:48.810Z,9.80
2023-03-19T18:34:14.511Z,9.70
2023-03-19T18:38:36.501Z,9.50
2023-03-19T18:42:58.473Z,9.40
2023-03-19T18:47:20.441Z,9.30
2023-03-19T18:51:58.814Z,9.30
2023-03-19T18:56:33.599Z,9.20
2023-03-19T19:00:56.016Z,9.10
2023-03-19T19:05:27.546Z,8.90
2023-03-19T19:09:49.359Z,8.90
2023-03-19T19:14:22.117Z,8.70
2023-03-19T19:18:43.747Z,8.70
2023-03-19T19:23:05.906Z,8.50
2023-03-19T19:27:27.705Z,8.30
2023-03-19T19:31:49.692Z,8.20
2023-03-19T19:36:11.662Z,8.20
2023-03-19T19:40:34.123Z,8.30
2023-03-19T19:44:58.913Z,8.40
2023-03-19T19:49:21.715Z,8.30
2023-03-19T19:53:43.719Z,8.30
2023-03-19T19:58:08.577Z,8.30
2023-03-19T20:02:30.775Z,8.20
2023-03-19T20:06:52.941Z,8.20
2023-03-19T20:11:18.547Z,8.10
2023-03-19T20:15:41.099Z,8.10
2023-03-19T20:20:04.383Z,8.00
2023-03-19T20:24:26.746Z,7.90
2023-03-19T20:28:48.937Z,7.80
2023-03-19T20:33:12.662Z,7.90
2023-03-19T20:37:34.648Z,8.00
2023-03-19T20:41:56.649Z,8.10
2023-03-19T20:46:20.936Z,8.10
2023-03-19T20:50:44.863Z,8.10
2023-03-19T20:55:07.414Z,8.10
2023-03-19T20:59:29.238Z,8.00
2023-03-19T21:03:52.103Z,7.90
2023-03-19T21:08:29.397Z,7.80
2023-03-19T21:12:51.703Z,7.70
2023-03-19T21:17:13.430Z,7.70
2023-03-19T21:21:37.362Z,7.70
2023-03-19T21:26:08.419Z,7.60
2023-03-19T21:30:30.420Z,7.60
2023-03-19T21:34:53.371Z,7.70
2023-03-19T21:39:14.972Z,7.80
2023-03-19T21:43:53.938Z,7.90
2023-03-19T21:48:37.296Z,7.90
2023-03-19T21:53:01.576Z,7.80
2023-03-19T21:57:26.643Z,7.80
2023-03-19T22:01:48.642Z,7.70
2023-03-19T22:06:12.497Z,7.70
2023-03-19T22:10:34.484Z,7.70
2023-03-19T22:14:59.523Z,7.70
2023-03-19T22:19:22.338Z,7.70
2023-03-19T22:23:45.817Z,7.60
2023-03-19T22:28:30.169Z,7.50
2023-03-19T22:32:56.363Z,7.40
2023-03-19T22:37:30.013Z,7.10
2023-03-19T22:41:52.103Z,6.90
2023-03-19T22:46:18.467Z,6.80
2023-03-19T22:50:40.308Z,6.70
2023-03-19T22:55:11.874Z,6.60
2023-03-19T22:59:34.175Z,6.60
2023-03-19T23:03:57.048Z,6.60
2023-03-19T23:08:19.438Z,6.70
2023-03-19T23:12:41.696Z,6.90
2023-03-19T23:17:17.550Z,7.20
2023-03-19T23:21:39.363Z,7.30
2023-03-19T23:26:01.277Z,7.30
2023-03-19T23:30:31.524Z,7.30
2023-03-19T23:35:00.543Z,7.40
2023-03-19T23:39:24.130Z,7.40
2023-03-19T23:43:46.526Z,7.40
2023-03-19T23:48:21.869Z,7.40
2023-03-19T23:52:43.554Z,7.40
2023-03-19T23:57:14.234Z,7.50
